createdAt,value
2023-03-06T00:01:35.910Z,97095.45
2023-03-06T00:04:09.320Z,97095.45
2023-03-06T00:06:42.608Z,97099.72
2023-03-06T00:09:16.092Z,97100.49
2023-03-06T00:11:49.705Z,97102.14
2023-03-06T00:14:23.081Z,97104.55
2023-03-06T00:16:58.187Z,97096.73
2023-03-06T00:19:31.562Z,97100.91
2023-03-06T00:22:05.036Z,97101.61
2023-03-06T00:24:38.462Z,97098.12
2023-03-06T00:27:12.095Z,97102.34
2023-03-06T00:29:47.378Z,97098.09
2023-03-06T00:32:21.139Z,97094.71
2023-03-06T00:34:55.350Z,97099.00
2023-03-06T00:37:28.798Z,97106.67
2023-03-06T00:40:02.390Z,97097.27
2023-03-06T00:42:35.962Z,97104.09
2023-03-06T00:45:11.255Z,97098.03
2023-03-06T00:47:44.671Z,97100.49
2023-03-06T00:50:18.395Z,97104.72
2023-03-06T00:52:51.828Z,97104.70
2023-03-06T00:55:25.107Z,97102.05
2023-03-06T00:57:58.468Z,97105.42
2023-03-06T01:00:32.874Z,97103.69
2023-03-06T01:03:06.398Z,97108.73
2023-03-06T01:05:40.353Z,97102.81
2023-03-06T01:08:13.726Z,97110.53
2023-03-06T01:10:47.274Z,97102.96
2023-03-06T01:13:21.144Z,97103.05
2023-03-06T01:15:56.254Z,97105.73
2023-03-06T01:18:29.761Z,97106.70
2023-03-06T01:21:03.661Z,97103.34
2023-03-06T01:23:37.180Z,97098.30
2023-03-06T01:26:10.803Z,97101.77
2023-03-06T01:28:44.475Z,97100.12
2023-03-06T01:31:18.143Z,97105.28
2023-03-06T01:33:51.230Z,97107.05
2023-03-06T01:36:24.850Z,97098.56
2023-03-06T01:38:58.298Z,97101.99
2023-03-06T01:41:32.852Z,97110.58
2023-03-06T01:44:06.491Z,97101.17
2023-03-06T01:46:42.310Z,97101.23
2023-03-06T01:49:20.018Z,97108.95
2023-03-06T01:51:56.841Z,97108.05
2023-03-06T01:54:33.344Z,97109.75
2023-03-06T01:57:09.846Z,97108.02
2023-03-06T01:59:44.137Z,97112.31
2023-03-06T02:02:18.035Z,97106.28
2023-03-06T02:04:51.647Z,97114.78
2023-03-06T02:07:26.381Z,97115.60
2023-03-06T02:09:59.881Z,97118.95
2023-03-06T02:12:35.762Z,97112.93
2023-03-06T02:15:11.228Z,97104.34
2023-03-06T02:17:46.039Z,97112.93
2023-03-06T02:20:23.111Z,97112.98
2023-03-06T02:22:59.757Z,97121.56
2023-03-06T02:25:40.233Z,97126.69
2023-03-06T02:28:16.280Z,97114.72
2023-03-06T02:30:51.648Z,97119.83
2023-03-06T02:33:27.335Z,97120.63
2023-03-06T02:36:04.534Z,97125.71
2023-03-06T02:38:40.782Z,97121.45
2023-03-06T02:41:14.362Z,97129.12
2023-03-06T02:43:49.484Z,97122.30
2023-03-06T02:46:23.343Z,97118.05
2023-03-06T02:48:57.124Z,97119.72
2023-03-06T02:51:31.208Z,97118.84
2023-03-06T02:54:04.593Z,97119.69
2023-03-06T02:56:38.044Z,97117.95
2023-03-06T02:59:11.635Z,97119.63
2023-03-06T03:01:48.168Z,97127.30
2023-03-06T03:04:21.956Z,97118.75
2023-03-06T03:06:55.400Z,97116.16
2023-03-06T03:09:31.964Z,97110.16
2023-03-06T03:12:08.591Z,97112.72
2023-03-06T03:14:42.260Z,97113.55
2023-03-06T03:17:15.477Z,97114.37
2023-03-06T03:19:48.900Z,97116.09
2023-03-06T03:22:22.811Z,97113.61
2023-03-06T03:24:56.363Z,97115.37
2023-03-06T03:27:29.733Z,97113.69
2023-03-06T03:30:04.623Z,97120.48
2023-03-06T03:32:38.504Z,97113.61
2023-03-06T03:35:13.523Z,97113.52
2023-03-06T03:37:47.458Z,97114.37
2023-03-06T03:40:21.507Z,97121.97
2023-03-06T03:42:55.375Z,97116.74
2023-03-06T03:45:28.573Z,97121.88
2023-03-06T03:48:02.508Z,97126.99
2023-03-06T03:50:37.136Z,97121.91
2023-03-06T03:53:10.943Z,97127.97
2023-03-06T03:55:44.787Z,97133.23
2023-03-06T03:58:18.149Z,97130.70
2023-03-06T04:00:51.604Z,97124.71
2023-03-06T04:03:25.072Z,97128.12
2023-03-06T04:05:58.737Z,97122.19
2023-03-06T04:08:32.910Z,97123.06
2023-03-06T04:11:07.198Z,97132.50
2023-03-06T04:13:40.597Z,97127.50
2023-03-06T04:16:14.142Z,97122.36
2023-03-06T04:18:47.440Z,97122.36
2023-03-06T04:21:22.089Z,97125.80
2023-03-06T04:23:55.329Z,97125.80
2023-03-06T04:26:29.015Z,97125.92
2023-03-06T04:29:02.789Z,97125.09
2023-03-06T04:31:36.812Z,97128.53
2023-03-06T04:34:10.540Z,97122.56
2023-03-06T04:36:45.300Z,97123.36
2023-03-06T04:39:19.441Z,97124.86
2023-03-06T04:41:53.513Z,97129.85
2023-03-06T04:44:27.171Z,97125.41
2023-03-06T04:47:00.534Z,97128.73
2023-03-06T04:49:33.902Z,97130.47
2023-03-06T04:52:08.300Z,97130.49
2023-03-06T04:54:42.964Z,97134.02
2023-03-06T04:57:16.629Z,97133.17
2023-03-06T04:59:50.756Z,97134.02
2023-03-06T05:02:25.024Z,97130.61
2023-03-06T05:05:00.091Z,97128.85
2023-03-06T05:07:34.269Z,97130.55
2023-03-06T05:10:11.153Z,97134.17
2023-03-06T05:12:44.440Z,97135.23
2023-03-06T05:15:17.973Z,97138.88
2023-03-06T05:17:51.730Z,97144.84
2023-03-06T05:20:25.365Z,97145.66
2023-03-06T05:22:58.570Z,97138.16
2023-03-06T05:25:32.024Z,97145.95
2023-03-06T05:28:05.529Z,97140.98
2023-03-06T05:30:39.893Z,97142.69
2023-03-06T05:33:13.406Z,97142.69
2023-03-06T05:35:49.472Z,97144.51
2023-03-06T05:38:23.378Z,97141.23
2023-03-06T05:40:59.927Z,97148.05
2023-03-06T05:43:33.347Z,97126.63
2023-03-06T05:46:08.148Z,97151.74
2023-03-06T05:48:41.987Z,97145.08
2023-03-06T05:51:15.832Z,97154.47
2023-03-06T05:53:50.467Z,97152.06
2023-03-06T05:56:24.210Z,97160.63
2023-03-06T05:58:57.293Z,97151.45
2023-03-06T06:01:30.834Z,97157.59
2023-03-06T06:04:04.181Z,97162.00
2023-03-06T06:06:37.555Z,97159.44
2023-03-06T06:09:13.760Z,97162.27
2023-03-06T06:11:46.022Z,97159.09
2023-03-06T06:14:19.675Z,97164.82
2023-03-06T06:16:53.307Z,97178.47
2023-03-06T06:19:28.467Z,97170.95
2023-03-06T06:22:03.927Z,97161.05
2023-03-06T06:24:37.455Z,97162.10
2023-03-06T06:27:11.301Z,97161.45
2023-03-06T06:29:45.135Z,97155.29
2023-03-06T06:32:18.286Z,97161.45
2023-03-06T06:34:51.765Z,97166.83
2023-03-06T06:37:26.227Z,97159.56
2023-03-06T06:39:59.761Z,97158.24
2023-03-06T06:42:39.954Z,97164.20
2023-03-06T06:45:13.540Z,97160.61
2023-03-06T06:47:47.209Z,97164.10
2023-03-06T06:50:22.052Z,97172.97
2023-03-06T06:52:55.665Z,97170.32
2023-03-06T06:55:29.606Z,97170.11
2023-03-06T06:58:03.209Z,97169.30
2023-03-06T07:00:36.823Z,97167.00
2023-03-06T07:03:11.711Z,97176.66
2023-03-06T07:05:45.230Z,97163.81
2023-03-06T07:08:18.848Z,97160.08
2023-03-06T07:10:52.468Z,97177.86
2023-03-06T07:13:26.115Z,97170.94
2023-03-06T07:15:59.701Z,97181.33
2023-03-06T07:18:32.975Z,97177.15
2023-03-06T07:21:07.448Z,97168.52
2023-03-06T07:23:40.880Z,97173.80
2023-03-06T07:26:14.735Z,97171.31
2023-03-06T07:28:52.774Z,97172.08
2023-03-06T07:31:26.774Z,97160.24
2023-03-06T07:34:02.509Z,97170.33
2023-03-06T07:36:35.757Z,97177.95
2023-03-06T07:39:09.590Z,97173.72
2023-03-06T07:41:42.975Z,97177.12
2023-03-06T07:44:16.646Z,97178.70
2023-03-06T07:46:50.058Z,97186.39
2023-03-06T07:49:23.284Z,97183.99
2023-03-06T07:51:56.866Z,97185.94
2023-03-06T07:54:32.816Z,97200.53
2023-03-06T07:57:06.641Z,97189.35
2023-03-06T07:59:39.762Z,97186.78
2023-03-06T08:02:13.900Z,97187.75
2023-03-06T08:04:48.864Z,97209.16
2023-03-06T08:07:23.175Z,97197.22
2023-03-06T08:09:56.868Z,97204.13
2023-03-06T08:12:31.712Z,97199.69
2023-03-06T08:15:06.104Z,97194.30
2023-03-06T08:17:39.517Z,97208.70
2023-03-06T08:20:15.325Z,97198.58
2023-03-06T08:22:51.823Z,97199.42
2023-03-06T08:25:25.677Z,97200.23
2023-03-06T08:27:59.068Z,97199.23
2023-03-06T08:30:33.410Z,97195.69
2023-03-06T08:33:07.249Z,97201.59
2023-03-06T08:35:40.987Z,97209.37
2023-03-06T08:38:14.658Z,97209.41
2023-03-06T08:40:48.114Z,97212.91
2023-03-06T08:43:21.777Z,97210.34
2023-03-06T08:45:56.021Z,97196.78
2023-03-06T08:48:29.764Z,97207.10
2023-03-06T08:51:03.425Z,97203.04
2023-03-06T08:53:43.270Z,97197.42
2023-03-06T08:56:20.124Z,97200.95
2023-03-06T08:58:55.000Z,97202.14
2023-03-06T09:01:30.201Z,97198.63
2023-03-06T09:04:05.603Z,97205.45
2023-03-06T09:06:41.092Z,97206.34
2023-03-06T09:09:14.787Z,97208.91
2023-03-06T09:11:51.354Z,97197.04
2023-03-06T09:14:24.962Z,97187.26
2023-03-06T09:16:58.122Z,97206.92
2023-03-06T09:19:33.521Z,97206.95
2023-03-06T09:22:08.723Z,97208.05
2023-03-06T09:24:42.408Z,97204.74
2023-03-06T09:27:15.559Z,97207.35
2023-03-06T09:29:49.074Z,97208.23
2023-03-06T09:32:22.987Z,97215.12
2023-03-06T09:34:56.502Z,97229.77
2023-03-06T09:37:30.305Z,97221.11
2023-03-06T09:40:05.079Z,97221.88
2023-03-06T09:42:39.114Z,97226.89
2023-03-06T09:45:15.228Z,97229.42
2023-03-06T09:47:55.711Z,97228.04
2023-03-06T09:50:41.094Z,97217.69
2023-03-06T09:53:27.353Z,97232.31
2023-03-06T09:56:04.056Z,97239.24
2023-03-06T09:58:40.527Z,97233.21
2023-03-06T10:01:19.169Z,97232.31
2023-03-06T10:03:55.805Z,97242.69
2023-03-06T10:06:32.564Z,97240.95
2023-03-06T10:09:09.374Z,97235.77
2023-03-06T10:11:45.736Z,97245.93
2023-03-06T10:14:23.870Z,97243.95
2023-03-06T10:16:58.669Z,97236.01
2023-03-06T10:19:35.250Z,97235.91
2023-03-06T10:22:13.996Z,97232.22
2023-03-06T10:24:52.834Z,97229.20
2023-03-06T10:27:32.677Z,97221.94
2023-03-06T10:30:14.860Z,97239.48
2023-03-06T10:32:51.248Z,97241.81
2023-03-06T10:35:30.479Z,97245.12
2023-03-06T10:38:08.056Z,97242.52
2023-03-06T10:40:41.656Z,97251.83
2023-03-06T10:43:14.852Z,97244.09
2023-03-06T10:45:53.167Z,97247.28
2023-03-06T10:48:28.664Z,97244.56
2023-03-06T10:51:19.325Z,97241.12
2023-03-06T10:53:56.297Z,97236.89
2023-03-06T10:56:32.238Z,97238.11
2023-03-06T10:59:11.683Z,97235.90
2023-03-06T11:01:46.415Z,97236.83
2023-03-06T11:04:29.428Z,97238.71
2023-03-06T11:07:17.333Z,97236.61
2023-03-06T11:10:02.470Z,97235.53
2023-03-06T11:12:38.068Z,97238.73
2023-03-06T11:15:30.188Z,97238.38
2023-03-06T11:18:06.718Z,97250.63
2023-03-06T11:20:52.057Z,97258.30
2023-03-06T11:23:23.526Z,97243.45
2023-03-06T11:26:01.356Z,97245.40
2023-03-06T11:28:34.592Z,97255.58
2023-03-06T11:31:10.874Z,97256.87
2023-03-06T11:33:47.188Z,97256.02
2023-03-06T11:36:23.993Z,97249.14
2023-03-06T11:38:57.873Z,97253.29
2023-03-06T11:41:35.290Z,97237.62
2023-03-06T11:44:13.276Z,97254.68
2023-03-06T11:46:46.867Z,97251.20
2023-03-06T11:49:24.522Z,97250.30
2023-03-06T11:51:57.500Z,97240.03
2023-03-06T11:54:30.944Z,97247.80
2023-03-06T11:57:07.425Z,97246.02
2023-03-06T12:00:07.604Z,97243.35
2023-03-06T12:03:28.969Z,97249.28
2023-03-06T12:06:09.606Z,97248.27
2023-03-06T12:08:58.657Z,97260.22
2023-03-06T12:11:35.910Z,97258.42
2023-03-06T12:14:26.726Z,97286.77
2023-03-06T12:17:23.606Z,97261.00
2023-03-06T12:20:14.010Z,97264.47
2023-03-06T12:23:02.397Z,97262.84
2023-03-06T12:25:40.382Z,97267.93
2023-03-06T12:28:28.269Z,97320.87
2023-03-06T12:31:12.507Z,97247.65
2023-03-06T12:33:51.939Z,97264.44
2023-03-06T12:36:33.136Z,97264.23
2023-03-06T12:39:13.462Z,97270.24
2023-03-06T12:42:22.614Z,97267.90
2023-03-06T12:45:38.274Z,97277.47
2023-03-06T12:48:15.561Z,97271.73
2023-03-06T12:50:50.231Z,97267.34
2023-03-06T12:53:26.956Z,97289.51
2023-03-06T12:56:01.659Z,97261.78
2023-03-06T12:58:48.021Z,97264.72
2023-03-06T13:01:52.244Z,97272.30
2023-03-06T13:04:40.811Z,97263.45
2023-03-06T13:07:22.845Z,97277.34
2023-03-06T13:10:11.508Z,97265.93
2023-03-06T13:12:53.329Z,97262.08
2023-03-06T13:15:46.524Z,97270.00
2023-03-06T13:18:51.782Z,97278.30
2023-03-06T13:21:50.762Z,97265.66
2023-03-06T13:24:26.126Z,97282.20
2023-03-06T13:27:04.802Z,97277.95
2023-03-06T13:30:22.758Z,97282.19
2023-03-06T13:33:02.108Z,97266.70
2023-03-06T13:35:57.967Z,97289.97
2023-03-06T13:42:04.704Z,97294.28
2023-03-06T13:44:51.246Z,97312.22
2023-03-06T13:48:10.559Z,97313.30
2023-03-06T13:50:30.675Z,97308.09
2023-03-06T13:53:27.974Z,97320.13
2023-03-06T13:56:32.178Z,97320.53
2023-03-06T13:59:16.899Z,97314.88
2023-03-06T14:01:56.780Z,97313.65
2023-03-06T14:04:39.772Z,97323.11
2023-03-06T14:07:30.518Z,97316.98
2023-03-06T14:10:23.017Z,97316.80
2023-03-06T14:13:05.691Z,97323.52
2023-03-06T14:15:46.588Z,97321.97
2023-03-06T14:18:23.875Z,97331.50
2023-03-06T14:21:00.710Z,97327.20
2023-03-06T14:23:37.180Z,97324.43
2023-03-06T14:26:17.636Z,97337.91
2023-03-06T14:28:59.348Z,97334.08
2023-03-06T14:31:34.938Z,97341.45
2023-03-06T14:34:09.974Z,97344.55
2023-03-06T14:36:48.657Z,97342.58
2023-03-06T14:39:24.586Z,97364.72
2023-03-06T14:42:09.892Z,97344.95
2023-03-06T14:44:43.838Z,97351.63
2023-03-06T14:47:28.955Z,97366.01
2023-03-06T14:50:24.694Z,97359.84
2023-03-06T14:53:00.686Z,97364.89
2023-03-06T14:55:37.113Z,97368.12
2023-03-06T14:58:19.450Z,97395.30
2023-03-06T15:00:56.781Z,97376.29
2023-03-06T15:03:34.884Z,97366.58
2023-03-06T15:06:09.019Z,97378.25
2023-03-06T15:08:44.721Z,97376.31
2023-03-06T15:11:18.691Z,97388.95
2023-03-06T15:14:04.880Z,97388.88
2023-03-06T15:16:38.763Z,97389.50
2023-03-06T15:19:21.498Z,97396.91
2023-03-06T15:21:55.434Z,97394.27
2023-03-06T15:24:38.122Z,97395.86
2023-03-06T15:27:20.713Z,97406.09
2023-03-06T15:29:54.003Z,97409.55
2023-03-06T15:32:34.292Z,97410.58
2023-03-06T15:41:28.031Z,97413.55
2023-03-06T15:44:03.530Z,97424.36
2023-03-06T15:46:36.663Z,97428.36
2023-03-06T15:49:15.473Z,97439.98
2023-03-06T15:51:48.916Z,97447.28
2023-03-06T15:54:22.789Z,97439.34
2023-03-06T15:56:56.581Z,97451.16
2023-03-06T15:59:32.545Z,97446.66
2023-03-06T16:02:13.093Z,97451.60
2023-03-06T16:04:47.181Z,97459.10
2023-03-06T16:07:20.818Z,97463.30
2023-03-06T16:09:54.299Z,97460.53
2023-03-06T16:12:27.737Z,97468.09
2023-03-06T16:15:02.770Z,97465.43
2023-03-06T16:17:36.392Z,97475.52
2023-03-06T16:20:17.727Z,97473.73
2023-03-06T16:22:53.845Z,97479.67
2023-03-06T16:25:28.704Z,97483.08
2023-03-06T16:28:02.307Z,97486.34
2023-03-06T16:30:38.582Z,97490.60
2023-03-06T16:33:13.299Z,97500.80
2023-03-06T16:35:47.459Z,97497.27
2023-03-06T16:38:20.759Z,97498.87
2023-03-06T16:40:53.845Z,97502.31
2023-03-06T16:43:27.292Z,97500.61
2023-03-06T16:46:01.215Z,97508.23
2023-03-06T16:48:34.826Z,97499.64
2023-03-06T16:51:11.256Z,97506.31
2023-03-06T16:53:44.800Z,97513.86
2023-03-06T16:56:20.642Z,97516.30
2023-03-06T16:58:54.328Z,97512.73
2023-03-06T17:01:28.040Z,97516.14
2023-03-06T17:04:02.035Z,97517.73
2023-03-06T17:06:35.616Z,97523.66
2023-03-06T17:09:11.244Z,97526.98
2023-03-06T17:11:46.447Z,97531.20
2023-03-06T17:14:19.827Z,97534.45
2023-03-06T17:16:54.994Z,97530.19
2023-03-06T17:19:28.423Z,97536.11
2023-03-06T17:22:02.028Z,97535.22
2023-03-06T17:24:36.490Z,97533.52
2023-03-06T17:27:10.034Z,97538.55
2023-03-06T17:29:43.402Z,97542.77
2023-03-06T17:32:17.293Z,97539.28
2023-03-06T17:34:50.500Z,97548.64
2023-03-06T17:37:24.680Z,97557.97
2023-03-06T17:39:58.217Z,97554.52
2023-03-06T17:42:31.972Z,97557.89
2023-03-06T17:45:08.227Z,97556.14
2023-03-06T17:47:41.882Z,97556.05
2023-03-06T17:50:52.366Z,97558.49
2023-03-06T17:53:32.825Z,97554.23
2023-03-06T17:56:11.864Z,97565.98
2023-03-06T17:58:45.337Z,97570.16
2023-03-06T18:01:21.671Z,97566.80
2023-03-06T18:03:55.115Z,97579.56
2023-03-06T18:12:19.388Z,97572.61
2023-03-06T18:14:52.780Z,97575.61
2023-03-06T18:17:28.564Z,97586.71
2023-03-06T18:20:02.180Z,97576.49
2023-03-06T18:22:35.771Z,97580.79
2023-03-06T18:25:10.756Z,97578.16
2023-03-06T18:27:44.878Z,97573.82
2023-03-06T18:30:20.672Z,97588.25
2023-03-06T18:32:57.140Z,97599.14
2023-03-06T18:35:36.831Z,97587.99
2023-03-06T18:38:10.415Z,97593.86
2023-03-06T18:40:44.669Z,97590.13
2023-03-06T18:43:31.968Z,97588.09
2023-03-06T18:46:09.976Z,97587.93
2023-03-06T18:48:56.001Z,97594.61
2023-03-06T18:51:34.097Z,97592.01
2023-03-06T18:54:16.452Z,97595.28
2023-03-06T18:56:49.990Z,97598.46
2023-03-06T18:59:23.862Z,97601.02
2023-03-06T19:01:58.657Z,97600.16
2023-03-06T19:04:32.081Z,97603.52
2023-03-06T19:07:05.961Z,97604.41
2023-03-06T19:09:39.465Z,97604.41
2023-03-06T19:12:12.705Z,97600.16
2023-03-06T19:14:46.152Z,97607.86
2023-03-06T19:17:19.509Z,97603.70
2023-03-06T19:19:55.180Z,97607.91
2023-03-06T19:22:28.438Z,97611.40
2023-03-06T19:25:03.829Z,97605.58
2023-03-06T19:27:38.032Z,97607.59
2023-03-06T19:30:17.150Z,97604.49
2023-03-06T19:32:50.623Z,97630.12
2023-03-06T19:35:24.772Z,97618.42
2023-03-06T19:37:58.168Z,97610.80
2023-03-06T19:40:31.802Z,97611.83
2023-03-06T19:43:06.653Z,97615.32
2023-03-06T19:45:43.893Z,97616.13
2023-03-06T19:48:17.917Z,97615.23
2023-03-06T19:50:51.678Z,97605.70
2023-03-06T19:53:24.893Z,97610.77
2023-03-06T19:56:08.005Z,97613.98
2023-03-06T19:58:43.252Z,97617.18
2023-03-06T20:01:18.759Z,97622.19
2023-03-06T20:03:55.523Z,97624.61
2023-03-06T20:06:31.345Z,97611.00
2023-03-06T20:09:07.326Z,97628.87
2023-03-06T20:11:41.348Z,97627.08
2023-03-06T20:14:17.919Z,97633.08
2023-03-06T20:16:51.216Z,97634.69
2023-03-06T20:19:27.387Z,97630.34
2023-03-06T20:22:01.052Z,97635.45
2023-03-06T20:24:34.989Z,97628.50
2023-03-06T20:27:08.556Z,97634.38
2023-03-06T20:29:44.032Z,97621.56
2023-03-06T20:32:17.646Z,97627.52
2023-03-06T20:34:51.370Z,97626.71
2023-03-06T20:37:24.988Z,97634.27
2023-03-06T20:39:58.862Z,97628.19
2023-03-06T20:42:35.167Z,97635.66
2023-03-06T20:45:10.965Z,97633.02
2023-03-06T20:47:46.668Z,97632.73
2023-03-06T20:50:20.600Z,97633.39
2023-03-06T20:52:56.224Z,97639.17
2023-03-06T20:55:29.706Z,97631.65
2023-03-06T20:58:04.068Z,97637.79
2023-03-06T21:00:37.632Z,97627.10
2023-03-06T21:03:11.367Z,97628.95
2023-03-06T21:05:46.252Z,97624.06
2023-03-06T21:08:19.958Z,97628.33
2023-03-06T21:10:53.956Z,97627.52
2023-03-06T21:13:27.648Z,97629.27
2023-03-06T21:16:03.112Z,97625.19
2023-03-06T21:18:36.736Z,97633.61
2023-03-06T21:21:11.629Z,97631.86
2023-03-06T21:23:46.917Z,97630.13
2023-03-06T21:26:22.639Z,97633.61
2023-03-06T21:28:58.254Z,97635.41
2023-03-06T21:31:33.747Z,97627.74
2023-03-06T21:34:16.961Z,97637.14
2023-03-06T21:36:53.349Z,97636.34
2023-03-06T21:39:32.458Z,97633.78
2023-03-06T21:42:10.920Z,97642.30
2023-03-06T21:44:45.632Z,97647.41
2023-03-06T21:47:19.985Z,97646.55
2023-03-06T21:49:54.169Z,97639.75
2023-03-06T21:52:28.797Z,97648.39
2023-03-06T21:55:06.044Z,97641.63
2023-03-06T21:57:41.119Z,97643.47
2023-03-06T22:00:17.647Z,97641.86
2023-03-06T22:02:52.228Z,97634.29
2023-03-06T22:08:09.601Z,97642.60
2023-03-06T22:10:43.701Z,97646.64
2023-03-06T22:13:17.500Z,97644.13
2023-03-06T22:15:58.200Z,97642.60
2023-03-06T22:18:32.121Z,97640.05
2023-03-06T22:21:11.025Z,97657.92
2023-03-06T22:23:44.991Z,97644.27
2023-03-06T22:26:18.621Z,97646.78
2023-03-06T22:28:52.250Z,97633.91
2023-03-06T22:31:27.448Z,97649.28
2023-03-06T22:34:02.089Z,97653.45
2023-03-06T22:36:35.862Z,97644.89
2023-03-06T22:39:09.562Z,97643.91
2023-03-06T22:41:43.289Z,97634.55
2023-03-06T22:44:19.637Z,97627.73
2023-03-06T22:46:53.643Z,97635.44
2023-03-06T22:49:27.781Z,97634.68
2023-03-06T22:52:01.294Z,97644.84
2023-03-06T22:54:34.812Z,97643.16
2023-03-06T22:57:08.929Z,97635.53
2023-03-06T22:59:42.721Z,97635.53
2023-03-06T23:02:16.261Z,97634.55
2023-03-06T23:04:54.170Z,97650.77
2023-03-06T23:07:28.875Z,97643.91
2023-03-06T23:10:07.039Z,97634.51
2023-03-06T23:12:58.063Z,97634.55
2023-03-06T23:15:49.813Z,97642.17
2023-03-06T23:18:42.580Z,97623.44
2023-03-06T23:21:34.782Z,97630.92
2023-03-06T23:24:26.432Z,97634.24
2023-03-06T23:26:59.913Z,97630.78
2023-03-06T23:29:35.186Z,97628.16
2023-03-06T23:32:10.248Z,97624.80
2023-03-06T23:34:43.915Z,97628.23
2023-03-06T23:37:17.380Z,97629.00
2023-03-06T23:39:51.733Z,97635.81
2023-03-06T23:42:25.364Z,97622.95
2023-03-06T23:44:59.073Z,97643.38
2023-03-06T23:47:35.373Z,97629.71
2023-03-06T23:50:10.741Z,97630.52
2023-03-06T23:52:44.302Z,97638.94
2023-03-06T23:55:18.155Z,97631.99
2023-03-06T23:57:51.799Z,97625.09
